sensor_id;sensor_type;location;lat;lon;timestamp;P1;durP1;ratioP1;P2;durP2;ratioP2
42724;SDS011;28369;44.046;23.014;2023-02-28T00:00:24;43.10;;;27.27;;
42724;SDS011;28369;44.046;23.014;2023-02-28T00:02:50;53.50;;;26.17;;
42724;SDS011;28369;44.046;23.014;2023-02-28T00:05:17;50.53;;;28.88;;
42724;SDS011;28369;44.046;23.014;2023-02-28T00:07:45;44.83;;;27.45;;
42724;SDS011;28369;44.046;23.014;2023-02-28T00:10:12;46.78;;;29.00;;
42724;SDS011;28369;44.046;23.014;2023-02-28T00:12:39;47.67;;;28.55;;
42724;SDS011;28369;44.046;23.014;2023-02-28T00:15:05;41.92;;;26.08;;
42724;SDS011;28369;44.046;23.014;2023-02-28T00:17:32;41.65;;;26.83;;
42724;SDS011;28369;44.046;23.014;2023-02-28T00:19:57;47.55;;;26.30;;
42724;SDS011;28369;44.046;23.014;2023-02-28T00:22:34;50.00;;;29.13;;
42724;SDS011;28369;44.046;23.014;2023-02-28T00:25:01;47.47;;;28.52;;
42724;SDS011;28369;44.046;23.014;2023-02-28T00:27:26;44.13;;;27.42;;
42724;SDS011;28369;44.046;23.014;2023-02-28T00:29:51;49.10;;;28.75;;
42724;SDS011;28369;44.046;23.014;2023-02-28T00:32:19;50.03;;;28.17;;
42724;SDS011;28369;44.046;23.014;2023-02-28T00:34:44;46.55;;;27.40;;
42724;SDS011;28369;44.046;23.014;2023-02-28T00:37:10;50.17;;;28.10;;
42724;SDS011;28369;44.046;23.014;2023-02-28T00:39:37;47.30;;;28.50;;
42724;SDS011;28369;44.046;23.014;2023-02-28T00:42:03;44.70;;;26.90;;
42724;SDS011;28369;44.046;23.014;2023-02-28T00:44:30;45.17;;;27.10;;
42724;SDS011;28369;44.046;23.014;2023-02-28T00:46:56;44.10;;;26.98;;
42724;SDS011;28369;44.046;23.014;2023-02-28T00:49:22;45.45;;;26.98;;
42724;SDS011;28369;44.046;23.014;2023-02-28T00:51:48;44.17;;;27.45;;
42724;SDS011;28369;44.046;23.014;2023-02-28T00:54:14;46.70;;;27.30;;
42724;SDS011;28369;44.046;23.014;2023-02-28T00:56:39;48.13;;;28.67;;
42724;SDS011;28369;44.046;23.014;2023-02-28T00:59:05;46.95;;;28.15;;
42724;SDS011;28369;44.046;23.014;2023-02-28T01:01:30;44.92;;;27.02;;
42724;SDS011;28369;44.046;23.014;2023-02-28T01:03:57;43.88;;;26.67;;
42724;SDS011;28369;44.046;23.014;2023-02-28T01:06:22;49.38;;;28.25;;
42724;SDS011;28369;44.046;23.014;2023-02-28T01:08:48;46.63;;;27.90;;
42724;SDS011;28369;44.046;23.014;2023-02-28T01:11:15;42.60;;;25.63;;
42724;SDS011;28369;44.046;23.014;2023-02-28T01:13:42;45.38;;;26.98;;
42724;SDS011;28369;44.046;23.014;2023-02-28T01:16:09;41.08;;;26.90;;
42724;SDS011;28369;44.046;23.014;2023-02-28T01:18:35;43.95;;;27.15;;
42724;SDS011;28369;44.046;23.014;2023-02-28T01:21:08;45.05;;;26.17;;
42724;SDS011;28369;44.046;23.014;2023-02-28T01:23:39;40.72;;;24.42;;
42724;SDS011;28369;44.046;23.014;2023-02-28T01:26:09;38.10;;;24.25;;
42724;SDS011;28369;44.046;23.014;2023-02-28T01:28:37;42.58;;;23.98;;
42724;SDS011;28369;44.046;23.014;2023-02-28T01:31:02;39.20;;;23.60;;
42724;SDS011;28369;44.046;23.014;2023-02-28T01:33:28;35.78;;;22.67;;
42724;SDS011;28369;44.046;23.014;2023-02-28T01:36:04;37.58;;;22.83;;
42724;SDS011;28369;44.046;23.014;2023-02-28T01:38:32;38.25;;;23.25;;
42724;SDS011;28369;44.046;23.014;2023-02-28T01:40:58;37.03;;;22.90;;
42724;SDS011;28369;44.046;23.014;2023-02-28T01:43:28;40.20;;;24.33;;
42724;SDS011;28369;44.046;23.014;2023-02-28T01:45:55;38.15;;;23.50;;
42724;SDS011;28369;44.046;23.014;2023-02-28T01:48:24;37.30;;;24.40;;
42724;SDS011;28369;44.046;23.014;2023-02-28T01:50:52;41.70;;;23.85;;
42724;SDS011;28369;44.046;23.014;2023-02-28T01:53:23;39.70;;;22.98;;
42724;SDS011;28369;44.046;23.014;2023-02-28T01:55:54;40.13;;;24.10;;
42724;SDS011;28369;44.046;23.014;2023-02-28T01:58:20;40.80;;;24.83;;
42724;SDS011;28369;44.046;23.014;2023-02-28T02:00:45;40.63;;;25.02;;
42724;SDS011;28369;44.046;23.014;2023-02-28T02:03:14;43.88;;;25.48;;
42724;SDS011;28369;44.046;23.014;2023-02-28T02:05:44;43.42;;;26.00;;
42724;SDS011;28369;44.046;23.014;2023-02-28T02:08:15;44.47;;;26.50;;
42724;SDS011;28369;44.046;23.014;2023-02-28T02:27:33;43.72;;;26.60;;
42724;SDS011;28369;44.046;23.014;2023-02-28T02:41:15;44.30;;;26.70;;
42724;SDS011;28369;44.046;23.014;2023-02-28T02:43:46;44.70;;;25.95;;
42724;SDS011;28369;44.046;23.014;2023-02-28T02:48:45;44.20;;;25.15;;
42724;SDS011;28369;44.046;23.014;2023-02-28T02:51:16;47.20;;;26.25;;
42724;SDS011;28369;44.046;23.014;2023-02-28T02:53:53;43.60;;;26.33;;
42724;SDS011;28369;44.046;23.014;2023-02-28T02:56:26;45.75;;;27.70;;
42724;SDS011;28369;44.046;23.014;2023-02-28T02:58:56;48.47;;;27.23;;
42724;SDS011;28369;44.046;23.014;2023-02-28T03:01:27;43.83;;;25.85;;
42724;SDS011;28369;44.046;23.014;2023-02-28T03:04:04;49.13;;;28.48;;
42724;SDS011;28369;44.046;23.014;2023-02-28T03:06:32;48.42;;;27.33;;
42724;SDS011;28369;44.046;23.014;2023-02-28T03:08:59;48.85;;;28.75;;
42724;SDS011;28369;44.046;23.014;2023-02-28T03:11:25;48.17;;;26.48;;
42724;SDS011;28369;44.046;23.014;2023-02-28T03:19:37;44.72;;;26.35;;
42724;SDS011;28369;44.046;23.014;2023-02-28T03:25:33;45.83;;;27.33;;
42724;SDS011;28369;44.046;23.014;2023-02-28T03:31:26;44.55;;;26.27;;
42724;SDS011;28369;44.046;23.014;2023-02-28T03:34:07;51.45;;;27.92;;
42724;SDS011;28369;44.046;23.014;2023-02-28T03:36:50;51.83;;;27.17;;
42724;SDS011;28369;44.046;23.014;2023-02-28T03:39:20;49.40;;;27.95;;
42724;SDS011;28369;44.046;23.014;2023-02-28T03:41:56;52.47;;;28.38;;
42724;SDS011;28369;44.046;23.014;2023-02-28T03:44:27;49.10;;;27.48;;
42724;SDS011;28369;44.046;23.014;2023-02-28T03:49:37;45.83;;;27.10;;
42724;SDS011;28369;44.046;23.014;2023-02-28T03:52:08;47.15;;;27.10;;
42724;SDS011;28369;44.046;23.014;2023-02-28T03:54:36;47.47;;;26.20;;
42724;SDS011;28369;44.046;23.014;2023-02-28T03:57:15;43.38;;;25.63;;
42724;SDS011;28369;44.046;23.014;2023-02-28T03:59:59;45.92;;;25.75;;
42724;SDS011;28369;44.046;23.014;2023-02-28T04:02:29;43.40;;;25.85;;
42724;SDS011;28369;44.046;23.014;2023-02-28T04:04:54;41.25;;;25.38;;
42724;SDS011;28369;44.046;23.014;2023-02-28T04:07:20;39.35;;;23.90;;
42724;SDS011;28369;44.046;23.014;2023-02-28T04:09:46;39.25;;;23.10;;
42724;SDS011;28369;44.046;23.014;2023-02-28T04:12:11;40.55;;;23.95;;
42724;SDS011;28369;44.046;23.014;2023-02-28T04:14:37;36.05;;;21.90;;
42724;SDS011;28369;44.046;23.014;2023-02-28T04:17:02;31.92;;;18.52;;
42724;SDS011;28369;44.046;23.014;2023-02-28T04:19:28;15.55;;;9.73;;
42724;SDS011;28369;44.046;23.014;2023-02-28T04:21:53;8.50;;;6.53;;
42724;SDS011;28369;44.046;23.014;2023-02-28T04:24:23;4.82;;;4.43;;
42724;SDS011;28369;44.046;23.014;2023-02-28T04:26:51;6.40;;;4.60;;
42724;SDS011;28369;44.046;23.014;2023-02-28T04:29:20;6.47;;;4.70;;
42724;SDS011;28369;44.046;23.014;2023-02-28T04:31:48;5.82;;;4.72;;
42724;SDS011;28369;44.046;23.014;2023-02-28T04:34:13;5.50;;;4.95;;
42724;SDS011;28369;44.046;23.014;2023-02-28T04:36:39;6.10;;;5.50;;
42724;SDS011;28369;44.046;23.014;2023-02-28T04:39:04;6.72;;;5.03;;
42724;SDS011;28369;44.046;23.014;2023-02-28T04:41:30;5.20;;;4.32;;
42724;SDS011;28369;44.046;23.014;2023-02-28T04:43:55;6.25;;;4.70;;
42724;SDS011;28369;44.046;23.014;2023-02-28T04:46:21;5.53;;;5.03;;
42724;SDS011;28369;44.046;23.014;2023-02-28T04:48:47;6.78;;;6.05;;
42724;SDS011;28369;44.046;23.014;2023-02-28T04:51:14;6.15;;;5.63;;
42724;SDS011;28369;44.046;23.014;2023-02-28T04:53:42;6.53;;;5.93;;
42724;SDS011;28369;44.046;23.014;2023-02-28T04:56:08;6.13;;;5.53;;
42724;SDS011;28369;44.046;23.014;2023-02-28T04:58:37;7.35;;;5.32;;
42724;SDS011;28369;44.046;23.014;2023-02-28T05:01:13;8.00;;;6.40;;
42724;SDS011;28369;44.046;23.014;2023-02-28T05:03:57;5.50;;;5.00;;
42724;SDS011;28369;44.046;23.014;2023-02-28T05:06:24;6.03;;;5.13;;
42724;SDS011;28369;44.046;23.014;2023-02-28T05:08:51;6.05;;;5.45;;
42724;SDS011;28369;44.046;23.014;2023-02-28T05:11:36;6.05;;;5.47;;
42724;SDS011;28369;44.046;23.014;2023-02-28T05:14:02;6.85;;;6.15;;
42724;SDS011;28369;44.046;23.014;2023-02-28T05:18:59;8.27;;;5.95;;
42724;SDS011;28369;44.046;23.014;2023-02-28T05:21:32;10.00;;;6.53;;
42724;SDS011;28369;44.046;23.014;2023-02-28T05:24:01;7.85;;;7.05;;
42724;SDS011;28369;44.046;23.014;2023-02-28T05:26:28;9.77;;;7.10;;
42724;SDS011;28369;44.046;23.014;2023-02-28T05:28:55;7.78;;;7.07;;
42724;SDS011;28369;44.046;23.014;2023-02-28T05:31:21;8.38;;;7.28;;
42724;SDS011;28369;44.046;23.014;2023-02-28T05:33:47;7.25;;;6.55;;
42724;SDS011;28369;44.046;23.014;2023-02-28T05:36:12;7.57;;;6.78;;
42724;SDS011;28369;44.046;23.014;2023-02-28T05:38:38;7.35;;;6.63;;
42724;SDS011;28369;44.046;23.014;2023-02-28T05:41:10;7.68;;;6.80;;
42724;SDS011;28369;44.046;23.014;2023-02-28T05:43:36;8.05;;;7.20;;
42724;SDS011;28369;44.046;23.014;2023-02-28T05:46:03;7.57;;;6.65;;
42724;SDS011;28369;44.046;23.014;2023-02-28T05:48:34;11.30;;;7.88;;
42724;SDS011;28369;44.046;23.014;2023-02-28T05:51:00;8.80;;;7.90;;
42724;SDS011;28369;44.046;23.014;2023-02-28T05:53:27;11.10;;;6.68;;
42724;SDS011;28369;44.046;23.014;2023-02-28T05:55:53;8.90;;;7.55;;
42724;SDS011;28369;44.046;23.014;2023-02-28T05:58:18;9.02;;;8.13;;
42724;SDS011;28369;44.046;23.014;2023-02-28T06:00:44;10.32;;;9.07;;
42724;SDS011;28369;44.046;23.014;2023-02-28T06:03:10;9.95;;;8.57;;
42724;SDS011;28369;44.046;23.014;2023-02-28T06:05:35;11.68;;;8.90;;
42724;SDS011;28369;44.046;23.014;2023-02-28T06:08:01;11.77;;;10.48;;
42724;SDS011;28369;44.046;23.014;2023-02-28T06:10:27;11.15;;;9.20;;
42724;SDS011;28369;44.046;23.014;2023-02-28T06:12:52;11.45;;;9.75;;
42724;SDS011;28369;44.046;23.014;2023-02-28T06:15:17;12.63;;;9.98;;
42724;SDS011;28369;44.046;23.014;2023-02-28T06:17:43;13.27;;;10.95;;
42724;SDS011;28369;44.046;23.014;2023-02-28T06:20:09;17.92;;;13.68;;
42724;SDS011;28369;44.046;23.014;2023-02-28T06:22:37;13.65;;;10.68;;
42724;SDS011;28369;44.046;23.014;2023-02-28T06:25:04;12.95;;;10.73;;
42724;SDS011;28369;44.046;23.014;2023-02-28T06:27:31;12.70;;;10.82;;
42724;SDS011;28369;44.046;23.014;2023-02-28T06:29:57;12.18;;;10.57;;
42724;SDS011;28369;44.046;23.014;2023-02-28T06:32:23;15.15;;;12.43;;
42724;SDS011;28369;44.046;23.014;2023-02-28T06:34:48;14.43;;;12.82;;
42724;SDS011;28369;44.046;23.014;2023-02-28T06:37:15;19.23;;;14.80;;
42724;SDS011;28369;44.046;23.014;2023-02-28T06:39:41;14.70;;;11.75;;
42724;SDS011;28369;44.046;23.014;2023-02-28T06:42:06;13.40;;;11.63;;
42724;SDS011;28369;44.046;23.014;2023-02-28T06:44:32;12.63;;;11.15;;
42724;SDS011;28369;44.046;23.014;2023-02-28T06:47:03;12.20;;;10.38;;
42724;SDS011;28369;44.046;23.014;2023-02-28T06:49:31;11.02;;;9.27;;
42724;SDS011;28369;44.046;23.014;2023-02-28T06:51:57;14.75;;;12.55;;
42724;SDS011;28369;44.046;23.014;2023-02-28T06:54:23;15.00;;;12.45;;
42724;SDS011;28369;44.046;23.014;2023-02-28T06:56:48;15.00;;;11.93;;
42724;SDS011;28369;44.046;23.014;2023-02-28T06:59:14;12.50;;;11.20;;
42724;SDS011;28369;44.046;23.014;2023-02-28T07:01:39;15.23;;;12.65;;
42724;SDS011;28369;44.046;23.014;2023-02-28T07:04:05;15.93;;;10.95;;
42724;SDS011;28369;44.046;23.014;2023-02-28T07:06:32;16.50;;;11.65;;
42724;SDS011;28369;44.046;23.014;2023-02-28T07:08:57;12.40;;;11.00;;
42724;SDS011;28369;44.046;23.014;2023-02-28T07:11:24;15.98;;;13.65;;
42724;SDS011;28369;44.046;23.014;2023-02-28T07:13:54;16.05;;;13.10;;
42724;SDS011;28369;44.046;23.014;2023-02-28T07:16:21;14.07;;;11.50;;
42724;SDS011;28369;44.046;23.014;2023-02-28T07:18:47;13.93;;;12.13;;
42724;SDS011;28369;44.046;23.014;2023-02-28T07:21:13;14.27;;;11.95;;
42724;SDS011;28369;44.046;23.014;2023-02-28T07:23:39;16.10;;;13.60;;
42724;SDS011;28369;44.046;23.014;2023-02-28T07:26:15;23.50;;;17.02;;
42724;SDS011;28369;44.046;23.014;2023-02-28T07:28:42;13.23;;;11.80;;
42724;SDS011;28369;44.046;23.014;2023-02-28T07:31:08;14.65;;;12.38;;
42724;SDS011;28369;44.046;23.014;2023-02-28T07:33:35;13.05;;;10.60;;
42724;SDS011;28369;44.046;23.014;2023-02-28T07:36:02;12.93;;;11.60;;
42724;SDS011;28369;44.046;23.014;2023-02-28T07:38:35;16.52;;;12.38;;
42724;SDS011;28369;44.046;23.014;2023-02-28T07:41:02;14.43;;;12.40;;
42724;SDS011;28369;44.046;23.014;2023-02-28T07:43:31;14.18;;;12.48;;
42724;SDS011;28369;44.046;23.014;2023-02-28T07:46:04;14.00;;;11.90;;
42724;SDS011;28369;44.046;23.014;2023-02-28T07:48:32;16.73;;;12.73;;
42724;SDS011;28369;44.046;23.014;2023-02-28T07:50:58;14.20;;;12.23;;
42724;SDS011;28369;44.046;23.014;2023-02-28T07:53:24;13.13;;;11.07;;
42724;SDS011;28369;44.046;23.014;2023-02-28T07:55:50;15.60;;;13.73;;
42724;SDS011;28369;44.046;23.014;2023-02-28T07:58:16;13.90;;;11.75;;
42724;SDS011;28369;44.046;23.014;2023-02-28T08:00:41;14.75;;;12.23;;
42724;SDS011;28369;44.046;23.014;2023-02-28T08:03:08;14.68;;;11.38;;
42724;SDS011;28369;44.046;23.014;2023-02-28T08:05:38;12.95;;;10.85;;
42724;SDS011;28369;44.046;23.014;2023-02-28T08:08:07;15.07;;;12.18;;
42724;SDS011;28369;44.046;23.014;2023-02-28T08:10:33;13.85;;;11.80;;
42724;SDS011;28369;44.046;23.014;2023-02-28T08:12:59;14.88;;;11.95;;
42724;SDS011;28369;44.046;23.014;2023-02-28T08:15:25;16.20;;;13.20;;
42724;SDS011;28369;44.046;23.014;2023-02-28T08:17:50;15.82;;;12.80;;
42724;SDS011;28369;44.046;23.014;2023-02-28T08:20:16;16.58;;;13.05;;
42724;SDS011;28369;44.046;23.014;2023-02-28T08:22:41;16.73;;;14.23;;
42724;SDS011;28369;44.046;23.014;2023-02-28T08:25:07;18.20;;;15.20;;
42724;SDS011;28369;44.046;23.014;2023-02-28T08:27:33;13.82;;;11.95;;
42724;SDS011;28369;44.046;23.014;2023-02-28T08:29:59;14.25;;;11.93;;
42724;SDS011;28369;44.046;23.014;2023-02-28T08:32:24;14.30;;;12.02;;
42724;SDS011;28369;44.046;23.014;2023-02-28T08:34:50;14.13;;;12.10;;
42724;SDS011;28369;44.046;23.014;2023-02-28T08:37:16;15.15;;;12.52;;
42724;SDS011;28369;44.046;23.014;2023-02-28T08:39:41;17.48;;;14.23;;
42724;SDS011;28369;44.046;23.014;2023-02-28T08:42:07;16.45;;;13.32;;
42724;SDS011;28369;44.046;23.014;2023-02-28T08:44:32;17.15;;;14.35;;
42724;SDS011;28369;44.046;23.014;2023-02-28T08:46:58;14.48;;;12.90;;
42724;SDS011;28369;44.046;23.014;2023-02-28T08:49:23;15.15;;;13.25;;
42724;SDS011;28369;44.046;23.014;2023-02-28T08:51:49;16.58;;;14.75;;
42724;SDS011;28369;44.046;23.014;2023-02-28T08:54:14;20.67;;;16.20;;
42724;SDS011;28369;44.046;23.014;2023-02-28T08:56:44;15.52;;;12.00;;
42724;SDS011;28369;44.046;23.014;2023-02-28T08:59:11;17.90;;;13.85;;
42724;SDS011;28369;44.046;23.014;2023-02-28T09:01:37;19.95;;;15.55;;
42724;SDS011;28369;44.046;23.014;2023-02-28T09:04:02;17.42;;;14.98;;
42724;SDS011;28369;44.046;23.014;2023-02-28T09:06:28;17.73;;;13.02;;
42724;SDS011;28369;44.046;23.014;2023-02-28T09:08:55;21.65;;;16.20;;
42724;SDS011;28369;44.046;23.014;2023-02-28T09:11:23;26.65;;;18.15;;
42724;SDS011;28369;44.046;23.014;2023-02-28T09:13:49;21.27;;;17.33;;
42724;SDS011;28369;44.046;23.014;2023-02-28T09:16:15;20.08;;;16.20;;
42724;SDS011;28369;44.046;23.014;2023-02-28T09:18:41;21.05;;;16.23;;
42724;SDS011;28369;44.046;23.014;2023-02-28T09:21:08;21.65;;;16.83;;
42724;SDS011;28369;44.046;23.014;2023-02-28T09:23:42;24.38;;;17.05;;
42724;SDS011;28369;44.046;23.014;2023-02-28T09:26:13;21.10;;;15.95;;
42724;SDS011;28369;44.046;23.014;2023-02-28T09:28:46;23.73;;;17.40;;
42724;SDS011;28369;44.046;23.014;2023-02-28T09:31:15;21.35;;;16.17;;
42724;SDS011;28369;44.046;23.014;2023-02-28T09:33:47;22.17;;;15.85;;
42724;SDS011;28369;44.046;23.014;2023-02-28T09:36:14;21.63;;;17.45;;
42724;SDS011;28369;44.046;23.014;2023-02-28T09:38:39;22.88;;;18.20;;
42724;SDS011;28369;44.046;23.014;2023-02-28T09:43:54;25.58;;;17.55;;
42724;SDS011;28369;44.046;23.014;2023-02-28T09:46:36;30.55;;;22.15;;
42724;SDS011;28369;44.046;23.014;2023-02-28T09:49:12;25.25;;;18.15;;
42724;SDS011;28369;44.046;23.014;2023-02-28T09:51:52;19.50;;;15.95;;
42724;SDS011;28369;44.046;23.014;2023-02-28T09:54:24;27.80;;;19.98;;
42724;SDS011;28369;44.046;23.014;2023-02-28T09:57:01;20.60;;;15.88;;
42724;SDS011;28369;44.046;23.014;2023-02-28T10:02:23;20.58;;;15.85;;
42724;SDS011;28369;44.046;23.014;2023-02-28T10:05:00;19.67;;;14.90;;
42724;SDS011;28369;44.046;23.014;2023-02-28T10:09:59;20.25;;;15.10;;
42724;SDS011;28369;44.046;23.014;2023-02-28T10:12:30;18.98;;;14.57;;
42724;SDS011;28369;44.046;23.014;2023-02-28T10:14:58;20.00;;;16.02;;
42724;SDS011;28369;44.046;23.014;2023-02-28T10:17:30;17.35;;;14.35;;
42724;SDS011;28369;44.046;23.014;2023-02-28T10:20:09;17.35;;;14.82;;
42724;SDS011;28369;44.046;23.014;2023-02-28T10:25:44;19.42;;;15.43;;
42724;SDS011;28369;44.046;23.014;2023-02-28T10:28:15;19.75;;;15.25;;
42724;SDS011;28369;44.046;23.014;2023-02-28T10:30:47;19.23;;;15.73;;
42724;SDS011;28369;44.046;23.014;2023-02-28T10:33:17;20.38;;;15.98;;
42724;SDS011;28369;44.046;23.014;2023-02-28T10:35:46;18.25;;;15.07;;
42724;SDS011;28369;44.046;23.014;2023-02-28T10:38:16;17.38;;;15.00;;
42724;SDS011;28369;44.046;23.014;2023-02-28T10:40:44;19.88;;;14.65;;
42724;SDS011;28369;44.046;23.014;2023-02-28T10:45:38;22.85;;;16.92;;
42724;SDS011;28369;44.046;23.014;2023-02-28T10:55:22;22.95;;;17.33;;
42724;SDS011;28369;44.046;23.014;2023-02-28T10:57:50;22.95;;;17.40;;
42724;SDS011;28369;44.046;23.014;2023-02-28T11:00:18;22.40;;;18.38;;
42724;SDS011;28369;44.046;23.014;2023-02-28T11:02:50;22.55;;;17.90;;
42724;SDS011;28369;44.046;23.014;2023-02-28T11:05:23;21.23;;;18.60;;
42724;SDS011;28369;44.046;23.014;2023-02-28T11:07:54;39.47;;;29.83;;
42724;SDS011;28369;44.046;23.014;2023-02-28T11:10:23;24.40;;;18.98;;
42724;SDS011;28369;44.046;23.014;2023-02-28T11:12:57;25.65;;;20.55;;
42724;SDS011;28369;44.046;23.014;2023-02-28T11:15:24;31.02;;;22.67;;
42724;SDS011;28369;44.046;23.014;2023-02-28T11:18:01;26.10;;;20.88;;
42724;SDS011;28369;44.046;23.014;2023-02-28T11:20:40;24.75;;;20.17;;
42724;SDS011;28369;44.046;23.014;2023-02-28T11:23:05;22.95;;;17.67;;
42724;SDS011;28369;44.046;23.014;2023-02-28T11:25:38;26.17;;;18.98;;
42724;SDS011;28369;44.046;23.014;2023-02-28T11:28:05;36.28;;;26.92;;
42724;SDS011;28369;44.046;23.014;2023-02-28T11:30:49;74.57;;;51.22;;
42724;SDS011;28369;44.046;23.014;2023-02-28T11:33:44;179.23;;;137.23;;
42724;SDS011;28369;44.046;23.014;2023-02-28T11:36:28;40.78;;;32.60;;
42724;SDS011;28369;44.046;23.014;2023-02-28T11:38:57;27.00;;;20.08;;
42724;SDS011;28369;44.046;23.014;2023-02-28T11:41:36;27.60;;;18.83;;
42724;SDS011;28369;44.046;23.014;2023-02-28T11:44:05;29.95;;;20.95;;
42724;SDS011;28369;44.046;23.014;2023-02-28T11:46:54;29.85;;;22.85;;
42724;SDS011;28369;44.046;23.014;2023-02-28T11:49:37;34.47;;;29.13;;
42724;SDS011;28369;44.046;23.014;2023-02-28T11:52:33;25.48;;;18.90;;
42724;SDS011;28369;44.046;23.014;2023-02-28T11:57:56;23.58;;;19.75;;
42724;SDS011;28369;44.046;23.014;2023-02-28T12:05:53;37.38;;;26.77;;
42724;SDS011;28369;44.046;23.014;2023-02-28T12:23:43;26.23;;;20.13;;
42724;SDS011;28369;44.046;23.014;2023-02-28T12:26:45;30.83;;;21.27;;
42724;SDS011;28369;44.046;23.014;2023-02-28T12:29:14;28.33;;;22.00;;
42724;SDS011;28369;44.046;23.014;2023-02-28T12:31:46;30.13;;;23.38;;
42724;SDS011;28369;44.046;23.014;2023-02-28T12:34:19;33.42;;;25.35;;
42724;SDS011;28369;44.046;23.014;2023-02-28T12:36:49;27.30;;;22.38;;
42724;SDS011;28369;44.046;23.014;2023-02-28T12:39:20;31.27;;;22.85;;
42724;SDS011;28369;44.046;23.014;2023-02-28T12:41:53;32.60;;;20.02;;
42724;SDS011;28369;44.046;23.014;2023-02-28T12:44:30;29.40;;;21.67;;
42724;SDS011;28369;44.046;23.014;2023-02-28T12:50:08;28.88;;;22.35;;
42724;SDS011;28369;44.046;23.014;2023-02-28T12:52:41;30.40;;;21.65;;
42724;SDS011;28369;44.046;23.014;2023-02-28T12:55:57;27.73;;;22.05;;
42724;SDS011;28369;44.046;23.014;2023-02-28T13:09:21;27.95;;;20.58;;
42724;SDS011;28369;44.046;23.014;2023-02-28T13:11:50;28.67;;;19.85;;
42724;SDS011;28369;44.046;23.014;2023-02-28T13:19:25;29.92;;;22.02;;
42724;SDS011;28369;44.046;23.014;2023-02-28T13:21:53;29.00;;;20.73;;
42724;SDS011;28369;44.046;23.014;2023-02-28T13:24:41;32.35;;;22.98;;
42724;SDS011;28369;44.046;23.014;2023-02-28T13:27:25;27.95;;;20.00;;
42724;SDS011;28369;44.046;23.014;2023-02-28T13:33:20;30.40;;;21.88;;
42724;SDS011;28369;44.046;23.014;2023-02-28T13:35:46;26.27;;;20.38;;
42724;SDS011;28369;44.046;23.014;2023-02-28T13:38:17;29.85;;;20.45;;
42724;SDS011;28369;44.046;23.014;2023-02-28T13:40:47;30.73;;;19.20;;
42724;SDS011;28369;44.046;23.014;2023-02-28T13:43:13;26.20;;;18.00;;
42724;SDS011;28369;44.046;23.014;2023-02-28T13:46:01;28.27;;;19.05;;
42724;SDS011;28369;44.046;23.014;2023-02-28T13:48:33;27.08;;;19.40;;
42724;SDS011;28369;44.046;23.014;2023-02-28T13:50:58;32.15;;;20.27;;
42724;SDS011;28369;44.046;23.014;2023-02-28T13:53:36;27.58;;;19.85;;
42724;SDS011;28369;44.046;23.014;2023-02-28T13:56:51;28.45;;;20.42;;
42724;SDS011;28369;44.046;23.014;2023-02-28T13:59:27;30.67;;;19.67;;
42724;SDS011;28369;44.046;23.014;2023-02-28T14:07:31;25.83;;;19.58;;
42724;SDS011;28369;44.046;23.014;2023-02-28T14:10:28;29.67;;;18.90;;
42724;SDS011;28369;44.046;23.014;2023-02-28T14:12:58;31.35;;;21.27;;
42724;SDS011;28369;44.046;23.014;2023-02-28T14:20:48;31.20;;;19.52;;
42724;SDS011;28369;44.046;23.014;2023-02-28T14:23:26;28.88;;;20.73;;
42724;SDS011;28369;44.046;23.014;2023-02-28T14:26:13;26.02;;;19.15;;
42724;SDS011;28369;44.046;23.014;2023-02-28T14:31:15;29.33;;;21.10;;
42724;SDS011;28369;44.046;23.014;2023-02-28T14:36:36;26.73;;;19.67;;
42724;SDS011;28369;44.046;23.014;2023-02-28T14:39:07;31.17;;;18.88;;
42724;SDS011;28369;44.046;23.014;2023-02-28T14:41:39;29.30;;;20.95;;
42724;SDS011;28369;44.046;23.014;2023-02-28T14:44:13;33.33;;;23.00;;
42724;SDS011;28369;44.046;23.014;2023-02-28T14:46:42;39.30;;;28.17;;
42724;SDS011;28369;44.046;23.014;2023-02-28T14:51:42;28.63;;;20.63;;
42724;SDS011;28369;44.046;23.014;2023-02-28T14:54:12;31.67;;;21.52;;
42724;SDS011;28369;44.046;23.014;2023-02-28T14:56:40;31.80;;;20.92;;
42724;SDS011;28369;44.046;23.014;2023-02-28T14:59:21;28.85;;;20.42;;
42724;SDS011;28369;44.046;23.014;2023-02-28T15:02:21;30.15;;;21.30;;
42724;SDS011;28369;44.046;23.014;2023-02-28T15:04:55;28.33;;;20.38;;
42724;SDS011;28369;44.046;23.014;2023-02-28T15:07:21;30.90;;;20.02;;
42724;SDS011;28369;44.046;23.014;2023-02-28T15:12:39;29.48;;;20.23;;
42724;SDS011;28369;44.046;23.014;2023-02-28T15:15:13;33.22;;;22.48;;
42724;SDS011;28369;44.046;23.014;2023-02-28T15:17:40;35.67;;;25.33;;
42724;SDS011;28369;44.046;23.014;2023-02-28T15:20:11;41.08;;;26.60;;
42724;SDS011;28369;44.046;23.014;2023-02-28T15:22:38;36.58;;;24.27;;
42724;SDS011;28369;44.046;23.014;2023-02-28T15:25:04;34.13;;;25.10;;
42724;SDS011;28369;44.046;23.014;2023-02-28T15:27:44;29.17;;;20.90;;
42724;SDS011;28369;44.046;23.014;2023-02-28T15:30:15;31.35;;;23.92;;
42724;SDS011;28369;44.046;23.014;2023-02-28T15:32:44;32.78;;;21.83;;
42724;SDS011;28369;44.046;23.014;2023-02-28T15:35:17;33.83;;;21.27;;
42724;SDS011;28369;44.046;23.014;2023-02-28T15:37:52;31.00;;;22.70;;
42724;SDS011;28369;44.046;23.014;2023-02-28T15:45:58;38.08;;;23.73;;
42724;SDS011;28369;44.046;23.014;2023-02-28T15:53:54;32.70;;;26.02;;
42724;SDS011;28369;44.046;23.014;2023-02-28T15:56:23;32.90;;;23.98;;
42724;SDS011;28369;44.046;23.014;2023-02-28T15:59:01;39.13;;;25.25;;
42724;SDS011;28369;44.046;23.014;2023-02-28T16:01:31;37.03;;;24.17;;
42724;SDS011;28369;44.046;23.014;2023-02-28T16:04:14;38.78;;;25.75;;
42724;SDS011;28369;44.046;23.014;2023-02-28T16:09:22;41.72;;;29.38;;
42724;SDS011;28369;44.046;23.014;2023-02-28T16:11:48;65.07;;;41.40;;
42724;SDS011;28369;44.046;23.014;2023-02-28T16:14:17;45.95;;;28.67;;
42724;SDS011;28369;44.046;23.014;2023-02-28T16:16:46;50.00;;;32.40;;
42724;SDS011;28369;44.046;23.014;2023-02-28T16:19:14;37.75;;;24.73;;
42724;SDS011;28369;44.046;23.014;2023-02-28T16:21:40;35.58;;;23.00;;
42724;SDS011;28369;44.046;23.014;2023-02-28T16:24:05;37.58;;;23.38;;
42724;SDS011;28369;44.046;23.014;2023-02-28T16:26:31;41.83;;;23.77;;
42724;SDS011;28369;44.046;23.014;2023-02-28T16:28:59;41.45;;;24.77;;
42724;SDS011;28369;44.046;23.014;2023-02-28T16:31:26;40.35;;;25.98;;
42724;SDS011;28369;44.046;23.014;2023-02-28T16:33:52;40.88;;;27.10;;
42724;SDS011;28369;44.046;23.014;2023-02-28T16:36:18;42.33;;;27.52;;
42724;SDS011;28369;44.046;23.014;2023-02-28T16:38:46;39.45;;;24.95;;
42724;SDS011;28369;44.046;23.014;2023-02-28T16:41:12;43.72;;;27.75;;
42724;SDS011;28369;44.046;23.014;2023-02-28T16:43:44;49.92;;;27.60;;
42724;SDS011;28369;44.046;23.014;2023-02-28T16:46:11;42.25;;;26.95;;
42724;SDS011;28369;44.046;23.014;2023-02-28T16:48:38;47.13;;;27.63;;
42724;SDS011;28369;44.046;23.014;2023-02-28T16:51:05;45.45;;;25.00;;
42724;SDS011;28369;44.046;23.014;2023-02-28T16:53:33;47.72;;;27.15;;
42724;SDS011;28369;44.046;23.014;2023-02-28T16:56:00;42.80;;;27.00;;